Airfield :
LOGIN :

Register | Disclaimer

   EN    FR    IT 

 










Legend :    VFR   Marginal VFR   IFR   Intensive IFR   Very Intensive IFR
Visi :
Ceiling :
>= 8 km
>= 3000ft
5 to 8 km
1000 to 3000 ft
1500m to 5 km
500 to 1000 ft
800 to 1500m
200 to 500 ft
< 800m
< 200 ft
Symbols :   Thunderstorms  Fog  Heavy snow  Heavy precipitations  Wind > 20 kt
SIGMETs :     Misc.  Thunderstorms  Icing  Turbulence  Mountain Waves  Volcanic Ashes







- Airport Elevation : 154 ft
- IATA code : SZZ


EPSC - Szczecin Goleniow

CURRENT METAR :
  • 160830Z 24008KT 220V280 9999 FEW015 BKN019 06/05 Q1005

EXPIRED METARs :
  • 160800Z 25008KT 210V290 9999 FEW013 BKN015 06/05 Q1005
  • 160730Z 25008KT 9999 FEW012 BKN015 06/05 Q1004
  • 160700Z 25008KT 9999 FEW005 BKN012 06/05 Q1004
  • 160630Z 25009KT 9999 -DZ SCT006 SCT010 BKN017 06/05 Q1004
  • 160600Z 26010KT 9999 -DZ SCT006 SCT011 BKN016 06/05 Q1004

TAF TAF EPSC
Valid from the 16 at 06:00 until the 17 at 06:00 UTC


160530Z 1606/1706 28010KT 9999 -RA BKN012
BECMG 1606/1609 23012KT
TEMPO 1606/1622 4500 RA BR BKN004
No reported NOTAMs for that airfield.



MET'MAP, your aeronautical weather chart ! - Copyright ORBIFLY December 2007 - Disclaimer

ORBIFLY MET'MAP TEAM :

Programming & Development : Alexandra Zaïnal
Concept & Development : Baudouin d'Aumeries
Co-Development & Prog : Marc-Olivier Méhu
Technical & hardware support : Manuel Goepfert

Contact : metmap@orbifly.com




SOURCES & CREDITS :

   NOAA